Terminal Aerodrome Forecast
Issued by NWS

Home | Current Version | Previous Version | Graphics & Text | Print | Product List | Glossary On
Versions: 1 2 3 4 5 6 7 8 9 10 11 12 13 14 15 16 17 18 19 20 21 22 23 24 25 26 27 28 29 30 31 32 33 34 35 36 37 38 39 40 41
000
FTUS43 KGRB 260600 AAA
TAFRHI
TAF AMD
KRHI 260623Z 2606/2706 00000KT P6SM SCT020 BKN050
     FM261200 03004KT 6SM BR BKN020
     FM270000 29004KT 6SM -SN BR SCT015 OVC030=

USA.gov is the U.S. government's official web portal to all federal, state and local government web resources and services.